createdAt,value
2018-09-04T00:05:00.360Z,3.28
2018-09-04T00:10:55.382Z,2.7
2018-09-04T00:16:50.373Z,3.41
2018-09-04T00:22:45.383Z,3.23
2018-09-04T00:28:40.409Z,3.24
2018-09-04T00:34:35.419Z,3.17
2018-09-04T00:40:30.452Z,3.14
2018-09-04T00:46:25.420Z,2.89
2018-09-04T00:52:20.406Z,2.93
2018-09-04T00:58:15.440Z,2.94
2018-09-04T01:04:10.429Z,2.88
2018-09-04T01:10:05.505Z,2.81
2018-09-04T01:16:00.452Z,3.25
2018-09-04T01:21:55.514Z,3.11
2018-09-04T01:27:50.453Z,3.31
2018-09-04T01:33:45.450Z,2.88
2018-09-04T01:39:40.474Z,2.99
2018-09-04T01:45:35.480Z,2.51
2018-09-04T01:51:30.521Z,3.02
2018-09-04T01:57:25.483Z,3.07
2018-09-04T02:03:20.485Z,2.92
2018-09-04T02:09:15.531Z,2.99
2018-09-04T02:15:10.583Z,3.02
2018-09-04T02:21:05.538Z,2.79
2018-09-04T02:27:00.505Z,2.93
2018-09-04T02:32:55.558Z,3.13
2018-09-04T02:38:50.526Z,3.21
2018-09-04T02:44:45.524Z,3.35
2018-09-04T02:50:40.531Z,3.21
2018-09-04T02:56:35.546Z,2.81
2018-09-04T03:02:30.568Z,3.21
2018-09-04T03:08:25.606Z,3.09
2018-09-04T03:14:20.611Z,3
2018-09-04T03:20:15.569Z,3.4
2018-09-04T03:26:10.583Z,3.14
2018-09-04T03:32:05.594Z,2.9
2018-09-04T03:38:00.594Z,3.18
2018-09-04T03:43:55.770Z,3.29
2018-09-04T03:49:50.571Z,2.92
2018-09-04T03:55:45.655Z,3.12
2018-09-04T04:01:40.632Z,3.48
2018-09-04T04:07:35.592Z,3.26
2018-09-04T04:13:30.632Z,3.37
2018-09-04T04:19:25.656Z,3.2
2018-09-04T04:25:20.661Z,2.83
2018-09-04T04:31:15.650Z,3.41
2018-09-04T04:37:10.618Z,2.81
2018-09-04T04:43:05.642Z,2.98
2018-09-04T04:49:00.623Z,3.24
2018-09-04T04:54:55.639Z,3.2
2018-09-04T05:00:50.666Z,3.06
2018-09-04T05:06:45.656Z,3.1
2018-09-04T05:12:40.672Z,3.03
2018-09-04T05:18:35.680Z,3.15
2018-09-04T05:24:30.682Z,3.43
2018-09-04T05:30:25.680Z,2.97
2018-09-04T05:36:20.700Z,2.85
2018-09-04T05:42:15.693Z,3.4
2018-09-04T05:48:10.722Z,3.21
2018-09-04T05:54:05.716Z,3.1
2018-09-04T06:00:00.724Z,4.04
2018-09-04T06:05:55.707Z,3.4
2018-09-04T06:11:50.715Z,3.85
2018-09-04T06:17:45.808Z,3.86
2018-09-04T06:23:40.718Z,3.22
2018-09-04T06:29:35.766Z,3.33
2018-09-04T06:35:30.831Z,3.51
2018-09-04T06:41:25.739Z,3.65
2018-09-04T06:47:20.747Z,3.54
2018-09-04T06:53:15.750Z,3.68
2018-09-04T06:59:10.784Z,3.44
2018-09-04T07:05:05.775Z,3.96
2018-09-04T07:11:00.782Z,3.35
2018-09-04T07:16:55.814Z,3.8
2018-09-04T07:22:50.827Z,3.73
2018-09-04T07:28:45.791Z,3.86
2018-09-04T07:34:40.781Z,4.08
2018-09-04T07:40:35.808Z,4.63
2018-09-04T07:46:30.813Z,4.42
2018-09-04T07:52:25.840Z,4.58
2018-09-04T07:58:20.842Z,4.17
2018-09-04T08:04:15.812Z,3.92
2018-09-04T08:10:10.876Z,3.85
2018-09-04T08:16:05.828Z,4.61
2018-09-04T08:22:00.832Z,6.75
2018-09-04T08:27:55.910Z,4.52
2018-09-04T08:33:50.854Z,5.37
2018-09-04T08:39:45.875Z,4.31
2018-09-04T08:45:40.877Z,5.06
2018-09-04T08:51:35.879Z,4.5
2018-09-04T08:57:30.881Z,4.79
2018-09-04T09:03:25.905Z,3.82
2018-09-04T09:09:20.894Z,4.33
2018-09-04T09:15:15.898Z,3.72
2018-09-04T09:21:10.911Z,3.76
2018-09-04T09:27:05.901Z,3.81
2018-09-04T09:33:00.904Z,3.54
2018-09-04T09:38:55.917Z,4.02
2018-09-04T09:44:50.919Z,4
2018-09-04T09:50:45.959Z,3.94
2018-09-04T09:56:40.962Z,4.02
2018-09-04T10:02:35.993Z,3.93
2018-09-04T10:08:30.977Z,3.35
2018-09-04T10:14:25.989Z,3.5
2018-09-04T10:20:20.954Z,3.04
2018-09-04T10:26:16.038Z,3.74
2018-09-04T10:32:11.024Z,3.68
2018-09-04T10:38:05.964Z,5.05
2018-09-04T10:44:01.035Z,4.55
2018-09-04T10:49:56.020Z,4.83
2018-09-04T10:55:51.045Z,4.53
2018-09-04T11:01:46.040Z,3.32
2018-09-04T11:07:40.992Z,3.87
2018-09-04T11:13:36.023Z,3.44
2018-09-04T11:19:31.016Z,3.95
2018-09-04T11:25:26.062Z,4.95
2018-09-04T11:31:21.081Z,3.23
2018-09-04T11:37:16.029Z,2.81
2018-09-04T11:43:11.027Z,2.91
2018-09-04T11:49:06.044Z,2.75
2018-09-04T11:55:01.061Z,2.21
2018-09-04T12:00:56.051Z,2.83
2018-09-04T12:06:51.080Z,2.6
2018-09-04T12:12:46.193Z,2.88
2018-09-04T12:18:41.067Z,2.59
2018-09-04T12:24:36.056Z,2.77
2018-09-04T12:30:31.124Z,2.65
2018-09-04T12:36:26.112Z,2.6
2018-09-04T12:42:21.125Z,2.33
2018-09-04T12:48:16.185Z,2.96
2018-09-04T12:54:11.113Z,3.06
2018-09-04T13:00:06.280Z,2.6
2018-09-04T13:06:01.138Z,2.84
2018-09-04T13:11:56.140Z,2.7
2018-09-04T13:17:51.143Z,3.14
2018-09-04T13:23:46.120Z,2.8
2018-09-04T13:29:41.154Z,2.96
2018-09-04T13:35:36.163Z,2.6
2018-09-04T13:41:31.201Z,1.96
2018-09-04T13:47:26.143Z,2.1
2018-09-04T13:53:21.152Z,2.47
2018-09-04T13:59:16.161Z,2.79
2018-09-04T14:05:11.264Z,2.51
2018-09-04T14:11:06.206Z,2.61
2018-09-04T14:17:01.290Z,2.36
2018-09-04T14:22:56.230Z,2.18
2018-09-04T14:29:06.431Z,2.81
2018-09-04T14:34:46.208Z,2.55
2018-09-04T14:40:41.215Z,2.57
2018-09-04T14:46:36.326Z,2.58
2018-09-04T14:52:31.223Z,2.94
2018-09-04T14:58:26.229Z,2.49
2018-09-04T15:04:21.231Z,2.73
2018-09-04T15:10:16.321Z,2.86
2018-09-04T15:16:11.235Z,2.56
2018-09-04T15:22:06.308Z,2.46
2018-09-04T15:28:01.316Z,2.81
2018-09-04T15:33:56.276Z,2.35
2018-09-04T15:39:51.272Z,2.79
2018-09-04T15:45:46.317Z,2.24
2018-09-04T15:51:41.353Z,2.26
2018-09-04T15:57:36.318Z,3.26
2018-09-04T16:03:31.322Z,2.27
2018-09-04T16:09:26.300Z,2.42
2018-09-04T16:15:21.306Z,2.8
2018-09-04T16:21:16.328Z,2.33
2018-09-04T16:27:11.306Z,2.14
2018-09-04T16:33:06.379Z,2.6
2018-09-04T16:39:01.329Z,2.73
2018-09-04T16:44:56.343Z,2.93
2018-09-04T16:50:51.341Z,2.47
2018-09-04T16:56:46.393Z,3.42
2018-09-04T17:02:41.376Z,3.48
2018-09-04T17:08:36.377Z,2.95
2018-09-04T17:14:31.363Z,2.84
2018-09-04T17:20:26.388Z,3.53
2018-09-04T17:26:21.377Z,3.61
2018-09-04T17:32:16.424Z,3.38
2018-09-04T17:38:11.436Z,2.95
2018-09-04T17:44:06.374Z,2.84
2018-09-04T17:50:01.498Z,2.57
2018-09-04T17:55:56.434Z,3.45
2018-09-04T18:01:51.398Z,4.29
2018-09-04T18:07:46.460Z,3.55
2018-09-04T18:13:41.576Z,3.53
2018-09-04T18:19:36.445Z,3.88
2018-09-04T18:25:31.470Z,3.54
2018-09-04T18:31:26.482Z,3.51
2018-09-04T18:37:21.439Z,3.56
2018-09-04T18:43:16.443Z,3.85
2018-09-04T18:49:11.491Z,4.32
2018-09-04T18:55:06.639Z,3.83
2018-09-04T19:01:01.464Z,4.14
2018-09-04T19:06:56.604Z,4.53
2018-09-04T19:12:51.473Z,4.45
2018-09-04T19:18:46.477Z,4.29
2018-09-04T19:24:41.573Z,4.94
2018-09-04T19:30:36.525Z,7.55
2018-09-04T19:36:31.749Z,6.52
2018-09-04T19:42:26.516Z,4.22
2018-09-04T19:48:21.543Z,4.33
2018-09-04T19:54:16.534Z,4.05
2018-09-04T20:00:11.633Z,4.14
2018-09-04T20:06:06.510Z,4.06
2018-09-04T20:12:01.537Z,4.17
2018-09-04T20:17:56.528Z,3.73
2018-09-04T20:23:51.558Z,3.68
2018-09-04T20:29:46.577Z,3.41
2018-09-04T20:35:41.546Z,3.47
2018-09-04T20:41:36.554Z,3.66
2018-09-04T20:47:31.556Z,4.18
2018-09-04T20:53:26.565Z,3.61
2018-09-04T20:59:21.593Z,3.61
2018-09-04T21:05:17.039Z,3.56
2018-09-04T21:11:11.606Z,3.83
2018-09-04T21:17:06.639Z,3.94
2018-09-04T21:23:01.626Z,4.09
2018-09-04T21:28:56.612Z,3.84
2018-09-04T21:34:51.622Z,4.04
2018-09-04T21:40:46.636Z,3.71
2018-09-04T21:46:41.669Z,3.65
2018-09-04T21:52:36.629Z,3.74
2018-09-04T21:58:31.661Z,3.69
2018-09-04T22:04:26.642Z,4.53
2018-09-04T22:10:21.655Z,3.97
2018-09-04T22:16:16.692Z,3.62
2018-09-04T22:22:11.667Z,3.86
2018-09-04T22:28:06.660Z,3.82
2018-09-04T22:34:01.735Z,4.1
2018-09-04T22:39:56.669Z,3.95
2018-09-04T22:45:51.705Z,4.29
2018-09-04T22:51:46.686Z,3.9
2018-09-04T22:57:41.707Z,3.85
2018-09-04T23:03:36.715Z,3.7
2018-09-04T23:09:31.686Z,3.8
2018-09-04T23:15:26.705Z,3.57
2018-09-04T23:21:21.729Z,4.16
2018-09-04T23:27:16.718Z,4.11
2018-09-04T23:33:11.798Z,3.71
2018-09-04T23:39:06.754Z,4.22
2018-09-04T23:45:01.757Z,3.82
2018-09-04T23:50:56.746Z,3.67
2018-09-04T23:56:51.766Z,4.07
